Time;durP1;ratioP1;P1;durP2;ratioP2;P2;SDS_P1;SDS_P2;PMS_P1;PMS_P2;Temp;Humidity;BMP_temperature;BMP_pressure;BME280_temperature;BME280_humidity;BME280_pressure;Samples;Min_cycle;Max_cycle;Signal;HPM_P1;HPM_P2
2022/01/01 00:00:27;;;;;;;430.53;248.50;;;;;;;5.97;100.00;95182.72;5070147;28;20670;-78
2022/01/01 00:03:01;;;;;;;416.27;231.23;;;;;;;5.83;100.00;95173.94;5068845;28;20195;-78
2022/01/01 00:05:30;;;;;;;360.80;180.07;;;;;;;5.78;100.00;95183.97;5074692;28;20209;-79
2022/01/01 00:08:02;;;;;;;380.67;196.33;;;;;;;5.73;100.00;95166.47;5070512;28;20210;-83
2022/01/01 00:10:31;;;;;;;409.77;223.87;;;;;;;5.68;100.00;95173.91;5071258;28;20204;-75
2022/01/01 00:13:02;;;;;;;408.20;223.40;;;;;;;5.73;100.00;95176.78;5064759;28;20667;-75
2022/01/01 00:15:32;;;;;;;429.00;238.47;;;;;;;5.72;100.00;95166.63;5069614;28;20210;-76
2022/01/01 00:18:02;;;;;;;425.10;233.33;;;;;;;5.71;100.00;95165.81;5066622;28;20209;-76
2022/01/01 00:20:32;;;;;;;410.67;230.63;;;;;;;5.66;100.00;95168.13;5067825;28;20280;-75
2022/01/01 00:23:00;;;;;;;442.37;251.60;;;;;;;5.43;100.00;95139.00;5066600;28;20198;-75
2022/01/01 00:25:49;;;;;;;432.77;239.63;;;;;;;5.60;100.00;95158.53;5067981;28;20243;-75
2022/01/01 00:28:19;;;;;;;417.03;230.03;;;;;;;5.53;100.00;95155.06;5063424;28;20702;-76
2022/01/01 00:30:48;;;;;;;416.03;224.90;;;;;;;5.51;100.00;95156.22;5067684;28;20280;-86
2022/01/01 00:33:17;;;;;;;425.00;236.93;;;;;;;5.50;100.00;95160.56;5074810;28;20204;-77
2022/01/01 00:35:46;;;;;;;437.03;245.20;;;;;;;5.46;100.00;95164.44;5076501;28;20279;-84
2022/01/01 00:38:15;;;;;;;441.80;246.83;;;;;;;5.39;100.00;95166.13;5072269;28;20630;-80
2022/01/01 00:40:44;;;;;;;444.93;246.37;;;;;;;5.37;100.00;95170.63;5070225;28;20225;-81
2022/01/01 00:43:13;;;;;;;459.10;260.43;;;;;;;5.32;100.00;95169.56;5068659;28;20217;-81
2022/01/01 00:45:44;;;;;;;465.93;267.47;;;;;;;5.34;100.00;95165.03;5076082;28;20658;-77
2022/01/01 00:48:14;;;;;;;461.50;264.83;;;;;;;5.36;100.00;95160.50;5072033;28;20210;-83
2022/01/01 00:50:42;;;;;;;461.17;258.03;;;;;;;5.34;100.00;95155.50;5067816;28;20205;-80
2022/01/01 00:53:11;;;;;;;456.43;260.37;;;;;;;5.36;100.00;95152.78;5066737;28;20217;-79
2022/01/01 00:55:40;;;;;;;479.27;274.77;;;;;;;5.24;100.00;95151.59;5076298;28;20320;-81
2022/01/01 00:58:09;;;;;;;482.47;276.83;;;;;;;5.32;100.00;95154.09;5072165;28;20204;-80
2022/01/01 01:00:41;;;;;;;496.43;293.10;;;;;;;5.22;100.00;95128.59;5071391;28;20735;-80
2022/01/01 01:03:13;;;;;;;471.50;271.97;;;;;;;5.25;100.00;95130.00;5073703;28;20195;-80
2022/01/01 01:05:44;;;;;;;489.93;284.43;;;;;;;5.23;100.00;95135.31;5073443;28;20205;-80
2022/01/01 01:08:17;;;;;;;486.17;275.57;;;;;;;5.14;100.00;95134.56;5069302;28;20189;-81
2022/01/01 01:10:56;;;;;;;461.03;262.17;;;;;;;5.10;100.00;95130.75;5072122;28;20254;-83
2022/01/01 01:13:28;;;;;;;448.13;248.27;;;;;;;5.02;100.00;95114.56;5076320;28;20228;-81
2022/01/01 01:15:57;;;;;;;447.50;248.70;;;;;;;5.07;100.00;95120.81;5072750;28;20209;-79
2022/01/01 01:18:27;;;;;;;447.27;243.03;;;;;;;5.00;100.00;95121.66;5070627;28;20201;-79
2022/01/01 01:20:55;;;;;;;448.43;249.13;;;;;;;4.95;100.00;95127.31;5081632;28;20561;-83
2022/01/01 01:23:23;;;;;;;434.83;235.73;;;;;;;4.94;100.00;95127.47;5077513;28;20663;-79
2022/01/01 01:25:51;;;;;;;435.00;231.67;;;;;;;4.94;100.00;95119.75;5062334;28;20200;-79
2022/01/01 01:28:19;;;;;;;440.57;237.43;;;;;;;4.88;100.00;95141.84;5074299;28;20205;-80
2022/01/01 01:30:47;;;;;;;427.60;228.67;;;;;;;4.86;100.00;95148.13;5077679;28;20208;-81
2022/01/01 01:33:15;;;;;;;427.47;228.83;;;;;;;4.86;100.00;95138.66;5083919;28;20666;-79
2022/01/01 01:35:46;;;;;;;429.27;225.47;;;;;;;4.91;100.00;95154.38;5075993;28;20228;-79
2022/01/01 01:38:14;;;;;;;447.53;245.13;;;;;;;4.82;100.00;95136.59;5075145;28;20195;-79
2022/01/01 01:40:42;;;;;;;471.67;262.67;;;;;;;4.87;100.00;95144.59;5089651;28;20197;-84
2022/01/01 01:43:12;;;;;;;460.20;254.50;;;;;;;4.89;100.00;95142.66;5088835;28;20288;-80
2022/01/01 01:45:42;;;;;;;448.87;241.90;;;;;;;4.73;100.00;95122.97;5082345;28;20749;-79
2022/01/01 01:48:09;;;;;;;400.13;195.37;;;;;;;4.78;100.00;95138.69;5075281;28;20203;-79
2022/01/01 01:50:37;;;;;;;369.10;175.93;;;;;;;4.77;100.00;95137.09;5069352;28;20220;-79
2022/01/01 01:53:08;;;;;;;304.83;147.53;;;;;;;4.76;100.00;95134.69;5072746;28;20222;-79
2022/01/01 01:55:37;;;;;;;313.77;148.67;;;;;;;4.70;100.00;95136.19;5079781;28;20241;-79
2022/01/01 01:58:04;;;;;;;377.30;185.97;;;;;;;4.61;100.00;95138.97;5077115;28;20201;-79
2022/01/01 02:01:00;;;;;;;420.87;209.30;;;;;;;4.62;100.00;95138.78;5071036;28;20213;-79
2022/01/01 02:03:28;;;;;;;362.73;174.57;;;;;;;4.69;100.00;95133.75;5070342;28;20213;-79
2022/01/01 02:05:58;;;;;;;388.37;189.13;;;;;;;4.70;100.00;95123.31;5075124;28;20205;-80
2022/01/01 02:08:28;;;;;;;409.43;205.30;;;;;;;4.77;100.00;95115.69;5072860;28;20884;-80
2022/01/01 02:10:57;;;;;;;304.93;144.57;;;;;;;4.76;100.00;95106.38;5074923;28;20241;-80
2022/01/01 02:13:29;;;;;;;387.97;187.53;;;;;;;4.64;100.00;95098.25;5080660;28;20204;-81
2022/01/01 02:16:16;;;;;;;408.57;201.13;;;;;;;4.69;100.00;95124.28;5082468;28;20212;-80
2022/01/01 02:18:46;;;;;;;399.83;196.90;;;;;;;4.68;100.00;95122.66;5076213;28;20209;-81
2022/01/01 02:21:16;;;;;;;401.20;200.40;;;;;;;4.50;100.00;95094.63;5083005;28;20289;-83
2022/01/01 02:23:46;;;;;;;390.77;197.80;;;;;;;4.66;100.00;95116.09;5079393;28;20203;-81
2022/01/01 02:26:15;;;;;;;362.50;179.87;;;;;;;4.57;100.00;95108.41;5080311;28;20198;-81
2022/01/01 02:28:45;;;;;;;355.33;167.87;;;;;;;4.67;100.00;95117.69;5079988;28;20259;-81
2022/01/01 02:31:14;;;;;;;393.47;189.43;;;;;;;4.65;100.00;95115.28;5071900;28;20257;-80
2022/01/01 02:33:42;;;;;;;390.70;193.00;;;;;;;4.70;100.00;95117.34;5079654;28;20225;-81
2022/01/01 02:36:11;;;;;;;371.57;186.27;;;;;;;4.68;100.00;95116.72;5071013;28;20688;-79
2022/01/01 02:38:42;;;;;;;383.33;188.00;;;;;;;4.66;100.00;95114.31;5071086;28;20231;-78
2022/01/01 02:41:11;;;;;;;385.27;184.33;;;;;;;4.68;100.00;95109.78;5067132;28;20209;-79
2022/01/01 02:43:47;;;;;;;379.97;180.33;;;;;;;4.65;100.00;95106.78;5076838;28;20205;-79
2022/01/01 02:46:15;;;;;;;377.63;179.57;;;;;;;4.57;100.00;95090.41;5065428;28;20203;-79
2022/01/01 02:48:45;;;;;;;371.40;183.10;;;;;;;4.61;100.00;95102.94;5071302;28;20284;-79
2022/01/01 02:51:13;;;;;;;371.00;182.77;;;;;;;4.54;100.00;95106.19;5082686;28;20236;-79
2022/01/01 02:53:45;;;;;;;370.10;179.63;;;;;;;4.50;100.00;95097.19;5076369;28;20208;-79
2022/01/01 02:56:13;;;;;;;377.23;183.27;;;;;;;4.51;100.00;95096.22;5068906;28;20233;-79
2022/01/01 02:58:44;;;;;;;379.23;182.63;;;;;;;4.47;100.00;95097.53;5066712;28;20202;-79
2022/01/01 03:01:12;;;;;;;372.83;179.17;;;;;;;4.44;100.00;95081.66;5076553;28;20217;-79
2022/01/01 03:03:40;;;;;;;378.60;180.53;;;;;;;4.43;100.00;95087.75;5076324;28;20205;-79
2022/01/01 03:06:08;;;;;;;374.43;178.40;;;;;;;4.47;100.00;95081.31;5078743;28;20198;-79
2022/01/01 03:08:37;;;;;;;360.53;172.20;;;;;;;4.47;100.00;95079.50;5074240;28;20237;-78
2022/01/01 03:11:06;;;;;;;367.00;178.60;;;;;;;4.47;100.00;95084.66;5082870;28;20270;-79
2022/01/01 03:13:34;;;;;;;359.93;174.20;;;;;;;4.44;100.00;95068.78;5076757;28;20208;-79
2022/01/01 03:16:03;;;;;;;299.23;142.10;;;;;;;4.40;100.00;95073.47;5069032;28;20244;-79
2022/01/01 03:18:31;;;;;;;310.87;148.97;;;;;;;4.35;100.00;95069.78;5071347;28;20224;-79
2022/01/01 03:21:00;;;;;;;328.57;154.77;;;;;;;4.40;100.00;95072.66;5071635;28;20703;-79
2022/01/01 03:23:28;;;;;;;309.93;147.70;;;;;;;4.35;100.00;95064.66;5069827;28;20937;-78
2022/01/01 03:25:58;;;;;;;322.00;152.40;;;;;;;4.38;100.00;95072.03;5070197;28;20208;-79
2022/01/01 03:28:28;;;;;;;326.10;157.80;;;;;;;4.33;100.00;95082.81;5072928;28;20648;-78
2022/01/01 03:30:56;;;;;;;324.40;154.07;;;;;;;4.28;100.00;95084.28;5073003;28;20198;-79
2022/01/01 03:33:24;;;;;;;331.50;158.03;;;;;;;4.31;100.00;95078.81;5072973;28;20194;-79
2022/01/01 03:35:54;;;;;;;335.80;159.73;;;;;;;4.26;100.00;95071.63;5069637;28;20256;-80
2022/01/01 03:38:23;;;;;;;341.03;159.43;;;;;;;4.32;100.00;95072.72;5072561;28;20220;-79
2022/01/01 03:40:52;;;;;;;329.73;154.83;;;;;;;4.32;100.00;95073.50;5070497;28;20193;-80
2022/01/01 03:43:21;;;;;;;316.77;153.30;;;;;;;4.27;100.00;95062.13;5075193;28;20210;-79
2022/01/01 03:45:52;;;;;;;311.80;146.67;;;;;;;4.31;100.00;95071.09;5077464;28;20201;-80
2022/01/01 03:48:20;;;;;;;313.13;146.23;;;;;;;4.36;100.00;95086.81;5072269;28;20216;-80
2022/01/01 03:50:48;;;;;;;299.70;145.30;;;;;;;4.37;100.00;95080.72;5077217;28;20212;-81
2022/01/01 03:53:16;;;;;;;305.20;144.57;;;;;;;4.38;100.00;95085.69;5075221;28;20251;-80
2022/01/01 03:55:45;;;;;;;308.40;148.90;;;;;;;4.32;100.00;95072.72;5073745;28;20234;-79
2022/01/01 03:58:13;;;;;;;316.20;147.57;;;;;;;4.42;100.00;95061.22;5071134;28;20308;-79
2022/01/01 04:00:41;;;;;;;298.27;138.40;;;;;;;4.42;100.00;95061.22;5079872;28;20270;-80
2022/01/01 04:03:12;;;;;;;287.60;136.23;;;;;;;4.39;100.00;95060.75;5069248;28;20209;-78
2022/01/01 04:05:42;;;;;;;286.97;133.70;;;;;;;4.41;100.00;95057.06;5075588;28;20216;-78
2022/01/01 04:08:11;;;;;;;268.63;129.23;;;;;;;4.29;100.00;95026.75;5071512;28;20213;-79
2022/01/01 04:10:38;;;;;;;275.67;130.20;;;;;;;4.40;100.00;95041.78;5072206;28;20299;-78
2022/01/01 04:13:07;;;;;;;275.53;129.93;;;;;;;4.36;100.00;95037.94;5067648;28;20208;-78
2022/01/01 04:15:37;;;;;;;268.20;127.87;;;;;;;4.37;100.00;95036.97;5070589;28;20277;-79
2022/01/01 04:18:10;;;;;;;273.27;127.63;;;;;;;4.36;100.00;95025.88;5065885;28;20280;-81
2022/01/01 04:20:39;;;;;;;276.27;127.73;;;;;;;4.44;100.00;95041.25;5078635;28;20213;-80
2022/01/01 04:23:10;;;;;;;263.77;126.10;;;;;;;4.41;100.00;95028.75;5077820;28;20964;-81
2022/01/01 04:25:40;;;;;;;270.07;127.13;;;;;;;4.43;100.00;95034.53;5076573;28;20687;-80
2022/01/01 04:28:09;;;;;;;260.13;125.33;;;;;;;4.48;100.00;95031.44;5080703;28;20204;-79
2022/01/01 04:30:38;;;;;;;256.43;123.10;;;;;;;4.53;100.00;95037.66;5070683;28;20206;-78
2022/01/01 04:33:06;;;;;;;269.73;127.13;;;;;;;4.54;100.00;95035.91;5073688;28;20201;-77
2022/01/01 04:35:39;;;;;;;259.87;125.03;;;;;;;4.56;100.00;95037.31;5071023;28;20225;-82
2022/01/01 04:38:17;;;;;;;247.57;117.00;;;;;;;4.52;100.00;95023.22;5070510;28;20292;-81
2022/01/01 04:40:46;;;;;;;250.30;114.83;;;;;;;4.62;100.00;95025.53;5072268;28;20208;-79
2022/01/01 04:43:14;;;;;;;230.93;114.53;;;;;;;4.55;100.00;95024.63;5070538;28;20208;-81
2022/01/01 04:45:42;;;;;;;216.80;105.87;;;;;;;4.48;100.00;95019.38;5071273;28;20197;-81
2022/01/01 04:48:10;;;;;;;235.97;114.30;;;;;;;4.57;100.00;95017.53;5074918;28;20701;-81
2022/01/01 04:50:40;;;;;;;223.70;105.63;;;;;;;4.62;100.00;95022.97;5076539;28;20217;-80
2022/01/01 04:53:07;;;;;;;207.00;105.40;;;;;;;4.60;100.00;95019.78;5073272;28;20205;-80
2022/01/01 04:55:35;;;;;;;223.43;106.37;;;;;;;4.53;100.00;95011.94;5074687;28;20252;-80
2022/01/01 04:58:04;;;;;;;229.33;107.97;;;;;;;4.72;100.00;95025.31;5071816;28;20983;-79
2022/01/01 05:00:35;;;;;;;215.20;104.03;;;;;;;4.72;100.00;95015.00;5081107;28;20319;-79
2022/01/01 05:03:05;;;;;;;208.17;104.33;;;;;;;4.74;100.00;95013.06;5069277;28;20210;-80
2022/01/01 05:05:32;;;;;;;216.43;102.70;;;;;;;4.68;100.00;95004.25;5078288;28;20233;-80
2022/01/01 05:08:02;;;;;;;216.83;104.20;;;;;;;4.77;100.00;95028.97;5077211;28;20287;-80
2022/01/01 05:10:30;;;;;;;218.50;103.40;;;;;;;4.68;100.00;95040.28;5074802;28;20209;-80
2022/01/01 05:12:58;;;;;;;204.77;100.90;;;;;;;4.73;100.00;95039.78;5070593;28;20232;-80
2022/01/01 05:15:26;;;;;;;201.70;98.27;;;;;;;4.81;100.00;95055.19;5073828;28;20995;-80
2022/01/01 05:17:54;;;;;;;204.63;99.53;;;;;;;4.79;100.00;95057.13;5073662;28;20215;-82
2022/01/01 05:20:23;;;;;;;201.77;95.83;;;;;;;4.78;100.00;95046.03;5082846;28;20205;-80
2022/01/01 05:22:50;;;;;;;181.03;92.93;;;;;;;4.89;100.00;95062.84;5066692;28;20703;-80
2022/01/01 05:25:21;;;;;;;187.47;95.10;;;;;;;4.83;100.00;95040.34;5078934;28;20198;-81
2022/01/01 05:27:49;;;;;;;197.87;94.67;;;;;;;4.98;100.00;95059.22;5070766;28;20201;-81
2022/01/01 05:30:18;;;;;;;199.33;95.10;;;;;;;5.01;100.00;95064.03;5074513;28;20307;-82
2022/01/01 05:32:48;;;;;;;208.37;99.57;;;;;;;4.95;100.00;95075.81;5074836;28;20205;-82
2022/01/01 05:35:16;;;;;;;198.23;96.40;;;;;;;4.84;100.00;95078.00;5074620;28;20237;-83
2022/01/01 05:37:45;;;;;;;197.03;95.47;;;;;;;4.75;100.00;95089.31;5085921;28;20263;-82
2022/01/01 05:40:13;;;;;;;194.70;95.33;;;;;;;4.77;100.00;95084.78;5073730;28;20205;-82
2022/01/01 05:42:43;;;;;;;203.27;97.47;;;;;;;4.79;100.00;95096.53;5077828;28;20212;-82
2022/01/01 05:45:11;;;;;;;195.90;96.20;;;;;;;4.72;100.00;95087.09;5074552;28;20722;-82
2022/01/01 05:47:39;;;;;;;190.57;92.30;;;;;;;4.79;100.00;95098.31;5079441;28;20245;-81
2022/01/01 05:50:13;;;;;;;194.27;93.43;;;;;;;4.80;100.00;95087.84;5076357;28;20667;-81
2022/01/01 05:52:42;;;;;;;190.37;91.20;;;;;;;4.80;100.00;95084.47;5079381;28;20577;-80
2022/01/01 05:55:13;;;;;;;188.43;90.43;;;;;;;4.78;100.00;95076.13;5075411;28;20200;-81
2022/01/01 05:57:42;;;;;;;179.53;90.60;;;;;;;4.78;100.00;95083.84;5082181;28;20396;-80
2022/01/01 06:00:13;;;;;;;174.27;85.60;;;;;;;4.83;100.00;95076.38;5083514;28;20205;-79
2022/01/01 06:02:41;;;;;;;182.53;90.07;;;;;;;4.87;100.00;95063.00;5076231;28;20890;-78
2022/01/01 06:05:12;;;;;;;184.20;90.20;;;;;;;4.87;100.00;95072.50;5068916;28;20676;-78
2022/01/01 06:07:41;;;;;;;179.33;89.17;;;;;;;4.84;100.00;95075.44;5062177;28;20667;-78
2022/01/01 06:10:10;;;;;;;172.10;83.00;;;;;;;4.84;100.00;95070.28;5072642;28;20264;-78
2022/01/01 06:12:41;;;;;;;167.13;84.03;;;;;;;4.89;100.00;95062.84;5078070;28;20210;-78
2022/01/01 06:15:11;;;;;;;179.57;88.77;;;;;;;4.91;100.00;95071.16;5071589;28;20212;-79
2022/01/01 06:17:41;;;;;;;182.30;87.00;;;;;;;4.94;100.00;95074.22;5074326;28;20221;-79
2022/01/01 06:20:10;;;;;;;170.17;84.80;;;;;;;4.94;100.00;95070.84;5077025;28;20204;-80
2022/01/01 06:22:37;;;;;;;161.13;80.60;;;;;;;4.88;100.00;95074.91;5079389;28;20213;-80
2022/01/01 06:25:07;;;;;;;176.50;85.03;;;;;;;4.89;100.00;95075.69;5071211;28;20931;-80
2022/01/01 06:27:36;;;;;;;168.93;84.77;;;;;;;4.94;100.00;95070.84;5086135;28;20212;-79
2022/01/01 06:30:04;;;;;;;169.17;82.53;;;;;;;5.02;100.00;95065.63;5072846;28;20237;-79
2022/01/01 06:32:34;;;;;;;164.13;82.63;;;;;;;4.97;100.00;95042.16;5072840;28;20262;-78
2022/01/01 06:35:03;;;;;;;168.97;82.87;;;;;;;5.17;100.00;95070.84;5069403;28;20235;-79
2022/01/01 06:37:31;;;;;;;166.13;82.17;;;;;;;5.15;100.00;95081.28;5080071;28;20221;-79
2022/01/01 06:39:59;;;;;;;161.67;82.40;;;;;;;5.17;100.00;95086.28;5084617;28;20292;-79
2022/01/01 06:42:27;;;;;;;161.87;77.60;;;;;;;5.18;100.00;95086.09;5079866;28;20264;-80
2022/01/01 06:44:56;;;;;;;164.90;78.47;;;;;;;5.32;100.00;95095.63;5079056;28;20274;-80
2022/01/01 06:47:25;;;;;;;148.77;76.80;;;;;;;5.34;100.00;95091.09;5080093;28;20209;-80
2022/01/01 06:49:54;;;;;;;141.40;72.47;;;;;;;5.39;100.00;95095.75;5081724;28;20268;-79
2022/01/01 06:52:22;;;;;;;150.83;74.07;;;;;;;5.40;100.00;95099.91;5074823;28;20271;-79
2022/01/01 06:54:49;;;;;;;132.53;67.30;;;;;;;5.43;100.00;95097.78;5078168;28;20210;-79
2022/01/01 06:57:18;;;;;;;123.37;61.57;;;;;;;5.48;100.00;95103.19;5073755;28;20226;-79
2022/01/01 06:59:47;;;;;;;110.67;55.30;;;;;;;5.40;100.00;95092.16;5081043;28;20221;-79
2022/01/01 07:02:16;;;;;;;96.87;49.63;;;;;;;5.49;100.00;95099.66;5079256;28;20222;-79
2022/01/01 07:04:43;;;;;;;88.13;47.20;;;;;;;5.56;100.00;95092.03;5076672;28;20290;-79
2022/01/01 07:07:14;;;;;;;74.23;39.17;;;;;;;5.63;100.00;95100.66;5071812;28;20202;-78
2022/01/01 07:09:43;;;;;;;69.57;36.00;;;;;;;5.67;100.00;95097.56;5080033;28;20208;-79
2022/01/01 07:12:12;;;;;;;72.57;37.67;;;;;;;5.66;100.00;95098.53;5078412;28;20224;-78
2022/01/01 07:14:40;;;;;;;62.93;32.87;;;;;;;5.68;100.00;95096.56;5086796;28;20213;-83
2022/01/01 07:17:08;;;;;;;60.93;32.57;;;;;;;5.78;100.00;95116.13;5081273;28;20229;-81
2022/01/01 07:19:36;;;;;;;52.60;31.00;;;;;;;5.89;100.00;95101.06;5087453;28;20246;-81
2022/01/01 07:22:06;;;;;;;56.90;30.20;;;;;;;5.92;100.00;95115.38;5076378;28;20206;-79
2022/01/01 07:24:53;;;;;;;51.33;28.60;;;;;;;5.96;100.00;95126.94;5075921;28;20198;-81
2022/01/01 07:27:21;;;;;;;54.27;29.10;;;;;;;5.98;100.00;95118.03;5079905;28;20264;-83
2022/01/01 07:29:49;;;;;;;48.10;27.03;;;;;;;6.01;100.00;95109.16;5077958;28;20248;-81
2022/01/01 07:32:19;;;;;;;52.07;27.20;;;;;;;6.04;100.00;95114.75;5077425;28;20207;-81
2022/01/01 07:34:47;;;;;;;48.47;27.13;;;;;;;6.04;100.00;95119.09;5076111;28;20203;-81
2022/01/01 07:37:15;;;;;;;48.07;26.17;;;;;;;6.05;100.00;95118.94;5080478;28;20280;-81
2022/01/01 07:39:44;;;;;;;49.03;26.43;;;;;;;6.08;100.00;95123.75;5076216;28;20303;-81
2022/01/01 07:42:14;;;;;;;45.30;26.80;;;;;;;6.18;100.00;95123.47;5079541;28;20324;-81
2022/01/01 07:44:48;;;;;;;44.83;25.30;;;;;;;6.22;100.00;95130.69;5075940;28;20203;-82
2022/01/01 07:47:17;;;;;;;46.60;24.67;;;;;;;6.33;100.00;95134.56;5077180;28;20334;-81
2022/01/01 07:49:46;;;;;;;39.57;23.37;;;;;;;6.44;100.00;95131.53;5075267;28;20981;-80
2022/01/01 07:52:14;;;;;;;38.53;23.03;;;;;;;6.55;100.00;95133.66;5075206;28;20268;-81
2022/01/01 07:54:42;;;;;;;35.83;22.10;;;;;;;6.62;100.00;95121.63;5067741;28;20308;-81
2022/01/01 07:57:11;;;;;;;36.37;22.03;;;;;;;6.76;100.00;95117.38;5077884;28;20207;-82
2022/01/01 07:59:41;;;;;;;44.20;24.73;;;;;;;6.97;100.00;95114.84;5078535;28;20222;-81
2022/01/01 08:02:11;;;;;;;46.93;27.70;;;;;;;7.12;100.00;95125.13;5076001;28;20200;-83
2022/01/01 08:04:39;;;;;;;48.53;29.33;;;;;;;7.29;100.00;95118.72;5073252;28;20272;-81
2022/01/01 08:07:06;;;;;;;55.30;32.10;;;;;;;7.41;100.00;95120.63;5074325;28;20197;-82
2022/01/01 08:09:35;;;;;;;54.43;31.87;;;;;;;7.58;100.00;95117.75;5082091;28;20204;-82
2022/01/01 08:12:04;;;;;;;66.20;36.50;;;;;;;7.67;100.00;95122.59;5070572;28;20778;-83
2022/01/01 08:14:32;;;;;;;69.07;39.47;;;;;;;7.80;100.00;95124.47;5080327;28;20299;-82
2022/01/01 08:17:03;;;;;;;55.43;30.97;;;;;;;7.97;100.00;95123.16;5076757;28;20225;-82
2022/01/01 08:19:41;;;;;;;46.17;27.10;;;;;;;8.26;100.00;95125.53;5076436;28;20205;-82
2022/01/01 08:22:12;;;;;;;39.67;21.87;;;;;;;8.44;100.00;95130.22;5074112;28;20238;-82
2022/01/01 08:24:41;;;;;;;22.87;12.60;;;;;;;8.69;100.00;95128.72;5070541;28;20291;-81
2022/01/01 08:27:10;;;;;;;13.07;8.03;;;;;;;9.01;100.00;95122.84;5075145;28;20227;-80
2022/01/01 08:29:38;;;;;;;8.53;5.40;;;;;;;9.37;100.00;95132.06;5072782;28;20246;-80
2022/01/01 08:32:13;;;;;;;9.20;5.37;;;;;;;9.49;100.00;95136.47;5071741;28;20206;-84
2022/01/01 08:34:41;;;;;;;7.13;4.50;;;;;;;9.59;100.00;95138.66;5072464;28;20212;-80
2022/01/01 08:37:10;;;;;;;6.33;4.30;;;;;;;9.71;100.00;95129.28;5083790;28;20229;-82
2022/01/01 08:39:39;;;;;;;6.77;4.13;;;;;;;9.92;100.00;95146.44;5072350;28;20241;-80
2022/01/01 08:42:09;;;;;;;7.97;4.63;;;;;;;9.98;100.00;95149.03;5076742;28;20243;-80
2022/01/01 08:44:37;;;;;;;6.90;4.73;;;;;;;9.99;100.00;95134.22;5074954;28;20262;-80
2022/01/01 08:47:05;;;;;;;8.13;5.50;;;;;;;10.20;100.00;95160.00;5080426;28;20196;-81
2022/01/01 08:49:35;;;;;;;6.77;4.33;;;;;;;10.41;100.00;95153.78;5074242;28;20273;-82
2022/01/01 08:52:03;;;;;;;6.37;4.47;;;;;;;10.51;100.00;95161.94;5082546;28;20257;-80
2022/01/01 08:54:31;;;;;;;6.87;4.43;;;;;;;10.53;100.00;95167.75;5070655;28;20328;-82
2022/01/01 08:57:00;;;;;;;7.17;4.77;;;;;;;10.49;100.00;95149.16;5078679;28;20253;-83
2022/01/01 08:59:28;;;;;;;7.63;4.87;;;;;;;10.65;100.00;95160.88;5077173;28;20266;-83
2022/01/01 09:01:56;;;;;;;11.73;4.73;;;;;;;10.53;100.00;95150.34;5068609;28;20205;-81
2022/01/01 09:04:25;;;;;;;7.73;4.60;;;;;;;10.69;100.00;95181.06;5076438;28;20213;-81
2022/01/01 09:06:56;;;;;;;8.90;4.80;;;;;;;10.73;100.00;95182.28;5066936;28;20247;-81
2022/01/01 09:09:26;;;;;;;6.97;4.27;;;;;;;10.83;100.00;95187.00;5078146;28;20207;-80
2022/01/01 09:11:57;;;;;;;5.97;4.00;;;;;;;10.87;100.00;95184.81;5067815;28;20590;-72
2022/01/01 09:14:27;;;;;;;6.27;4.17;;;;;;;10.93;100.00;95190.00;5065767;28;20233;-72
2022/01/01 09:16:56;;;;;;;5.60;3.83;;;;;;;10.90;100.00;95159.19;5066641;28;20275;-73
2022/01/01 09:19:26;;;;;;;5.93;3.97;;;;;;;11.05;100.00;95185.75;5063027;28;21061;-71
2022/01/01 09:21:55;;;;;;;7.70;4.00;;;;;;;11.13;100.00;95185.50;5067205;28;20209;-75
2022/01/01 09:24:24;;;;;;;6.93;4.70;;;;;;;11.13;100.00;95171.69;5074408;28;20210;-73
2022/01/01 09:26:53;;;;;;;6.63;4.70;;;;;;;11.44;100.00;95178.69;5073086;28;20201;-73
2022/01/01 09:29:21;;;;;;;6.30;4.20;;;;;;;11.58;100.00;95181.00;5071993;28;20679;-72
2022/01/01 09:31:49;;;;;;;5.67;3.70;;;;;;;11.80;99.03;95194.53;5064255;28;20205;-72
2022/01/01 09:34:17;;;;;;;5.03;3.40;;;;;;;11.77;99.25;95185.34;5077032;28;20198;-72
2022/01/01 09:36:46;;;;;;;6.63;4.30;;;;;;;11.83;99.05;95200.09;5068049;28;20197;-72
2022/01/01 09:39:15;;;;;;;8.90;4.40;;;;;;;11.91;97.99;95194.63;5067268;28;20224;-72
2022/01/01 09:41:44;;;;;;;9.73;4.87;;;;;;;11.93;97.45;95210.84;5066632;28;20263;-72
2022/01/01 09:44:16;;;;;;;12.40;5.93;;;;;;;11.92;98.19;95216.25;5064305;28;20190;-72
2022/01/01 09:46:46;;;;;;;10.47;6.23;;;;;;;11.92;98.87;95213.66;5067220;28;20247;-72
2022/01/01 09:49:16;;;;;;;10.00;5.27;;;;;;;12.03;97.84;95212.19;5066264;28;20399;-72
2022/01/01 09:51:47;;;;;;;7.27;4.60;;;;;;;11.92;97.92;95208.44;5067679;28;20212;-72
2022/01/01 09:54:16;;;;;;;6.97;4.70;;;;;;;11.93;98.15;95204.81;5070831;28;20198;-77
2022/01/01 09:56:44;;;;;;;8.13;5.10;;;;;;;11.92;97.48;95204.03;5072497;28;20239;-83
2022/01/01 09:59:15;;;;;;;11.60;5.23;;;;;;;11.88;98.32;95202.88;5071510;28;20200;-81
2022/01/01 10:01:43;;;;;;;8.50;5.33;;;;;;;11.79;97.90;95204.13;5069708;28;20223;-82
2022/01/01 10:04:15;;;;;;;10.33;6.10;;;;;;;11.70;98.97;95208.00;5064270;28;20679;-82
2022/01/01 10:06:43;;;;;;;10.90;6.40;;;;;;;11.62;99.05;95205.63;5054319;28;20524;-83
2022/01/01 10:09:13;;;;;;;10.77;6.80;;;;;;;11.70;99.48;95220.22;5056418;28;21219;-79
2022/01/01 10:11:42;;;;;;;9.53;5.70;;;;;;;11.57;100.00;95210.66;5072505;28;20205;-77
2022/01/01 10:14:11;;;;;;;10.13;6.20;;;;;;;11.60;100.00;95212.84;5071866;28;20604;-77
2022/01/01 10:16:44;;;;;;;9.03;6.07;;;;;;;11.53;100.00;95214.69;5069857;28;20207;-78
2022/01/01 10:19:12;;;;;;;13.03;7.20;;;;;;;11.60;99.70;95212.06;5070476;28;20243;-77
2022/01/01 10:21:42;;;;;;;10.63;6.10;;;;;;;12.35;96.70;95209.28;5069958;28;20200;-76
2022/01/01 10:24:18;;;;;;;14.70;7.63;;;;;;;13.00;92.75;95214.81;5068967;28;20196;-76
2022/01/01 10:29:34;;;;;;;10.80;6.23;;;;;;;12.75;91.21;95212.31;5067558;28;20343;-77
2022/01/01 10:32:04;;;;;;;9.37;5.43;;;;;;;12.30;92.21;95208.31;5067879;28;20208;-76
2022/01/01 10:34:35;;;;;;;9.30;6.30;;;;;;;12.02;93.63;95200.16;5069060;28;20205;-77
2022/01/01 10:37:07;;;;;;;8.13;5.63;;;;;;;11.62;95.37;95192.63;5068180;28;20221;-77
2022/01/01 10:39:48;;;;;;;10.73;6.47;;;;;;;11.78;95.29;95194.72;5069219;28;21104;-78
2022/01/01 10:42:21;;;;;;;10.83;6.40;;;;;;;12.12;93.42;95190.84;5068246;28;20673;-78
2022/01/01 10:44:51;;;;;;;12.13;7.80;;;;;;;12.64;91.10;95191.34;5070091;28;20247;-77
2022/01/01 10:47:26;;;;;;;11.30;6.93;;;;;;;12.99;89.51;95195.75;5070707;28;20198;-77
2022/01/01 10:50:14;;;;;;;11.93;7.87;;;;;;;13.47;87.07;95192.38;5069318;28;20219;-77
2022/01/01 10:52:45;;;;;;;11.63;7.77;;;;;;;13.65;84.31;95190.47;5069703;28;20205;-76
2022/01/01 10:55:15;;;;;;;10.53;7.10;;;;;;;13.70;84.54;95186.41;5070119;28;20266;-77
2022/01/01 10:57:55;;;;;;;11.97;7.70;;;;;;;13.67;85.08;95185.03;5069741;28;20268;-76
2022/01/01 11:00:24;;;;;;;10.90;7.50;;;;;;;13.81;85.03;95190.88;5070243;28;20228;-84
2022/01/01 11:02:54;;;;;;;10.27;6.80;;;;;;;13.84;84.50;95190.41;5068691;28;20231;-77
2022/01/01 11:05:29;;;;;;;12.03;6.13;;;;;;;13.90;85.09;95187.72;5070465;28;20233;-77
2022/01/01 11:07:56;;;;;;;10.70;6.93;;;;;;;13.67;84.54;95184.25;5070323;28;20203;-78
2022/01/01 11:10:28;;;;;;;6.70;4.60;;;;;;;13.49;83.54;95185.09;5071064;28;20349;-78
2022/01/01 11:12:59;;;;;;;6.43;5.00;;;;;;;13.55;82.53;95171.97;5069078;28;20200;-77
2022/01/01 11:15:27;;;;;;;12.40;5.80;;;;;;;14.16;79.35;95186.47;5066596;28;20193;-77
2022/01/01 11:17:57;;;;;;;5.87;4.70;;;;;;;14.11;78.43;95191.59;5070020;28;20220;-78
2022/01/01 11:20:30;;;;;;;9.97;6.00;;;;;;;13.70;80.08;95189.03;5068686;28;20292;-79
2022/01/01 11:22:59;;;;;;;9.07;6.20;;;;;;;13.36;81.27;95183.47;5066601;28;20197;-76
2022/01/01 11:25:27;;;;;;;9.57;6.60;;;;;;;13.09;82.40;95171.78;5069978;28;20197;-73